createdAt,value
2018-12-25T00:00:16.635Z,1203.60
2018-12-25T00:01:16.626Z,1206.10
2018-12-25T00:02:16.611Z,1209.50
2018-12-25T00:03:16.608Z,1211.90
2018-12-25T00:04:16.589Z,1213.20
2018-12-25T00:05:16.578Z,1211.00
2018-12-25T00:06:16.597Z,1214.40
2018-12-25T00:07:16.581Z,1213.20
2018-12-25T00:08:16.661Z,1216.20
2018-12-25T00:09:16.550Z,1218.30
2018-12-25T00:10:16.557Z,1211.50
2018-12-25T00:11:16.542Z,1214.70
2018-12-25T00:12:16.537Z,1208.70
2018-12-25T00:13:16.500Z,1215.60
2018-12-25T00:14:16.514Z,1209.40
2018-12-25T00:15:16.508Z,1210.20
2018-12-25T00:16:16.471Z,1206.40
2018-12-25T00:17:16.491Z,1207.30
2018-12-25T00:18:16.468Z,1194.90
2018-12-25T00:19:16.463Z,1210.70
2018-12-25T00:20:16.512Z,1213.60
2018-12-25T00:21:16.466Z,1209.00
2018-12-25T00:22:16.462Z,1198.90
2018-12-25T00:23:16.440Z,1205.90
2018-12-25T00:24:16.405Z,1185.20
2018-12-25T00:25:16.435Z,1169.80
2018-12-25T00:26:16.415Z,1169.60
2018-12-25T00:27:16.412Z,1173.60
2018-12-25T00:28:16.402Z,1175.70
2018-12-25T00:29:16.380Z,1176.70
2018-12-25T00:30:16.382Z,1188.80
2018-12-25T00:31:16.379Z,1191.10
2018-12-25T00:32:16.351Z,1188.20
2018-12-25T00:33:16.399Z,1200.40
2018-12-25T00:34:16.358Z,1219.20
2018-12-25T00:35:16.354Z,1216.30
2018-12-25T00:36:16.315Z,1212.00
2018-12-25T00:37:16.325Z,1216.80
2018-12-25T00:38:16.293Z,1192.90
2018-12-25T00:39:16.360Z,1194.90
2018-12-25T00:40:16.306Z,1184.20
2018-12-25T00:41:16.308Z,1183.50
2018-12-25T00:42:16.290Z,1188.80
2018-12-25T00:43:16.289Z,1193.80
2018-12-25T00:44:16.276Z,1202.30
2018-12-25T00:45:18.276Z,1207.40
2018-12-25T00:46:16.248Z,1198.90
2018-12-25T00:47:16.256Z,1193.50
2018-12-25T00:48:16.245Z,1192.00
2018-12-25T00:49:16.222Z,1199.10
2018-12-25T00:50:16.229Z,1203.70
2018-12-25T00:51:16.214Z,1197.00
2018-12-25T00:52:16.194Z,1203.10
2018-12-25T00:53:16.199Z,1209.10
2018-12-25T00:54:16.191Z,1202.90
2018-12-25T00:55:16.181Z,1187.00
2018-12-25T00:56:16.164Z,1182.50
2018-12-25T00:57:16.161Z,1185.70
2018-12-25T00:58:16.173Z,1182.40
2018-12-25T00:59:16.133Z,1196.90
2018-12-25T01:00:16.131Z,1196.10
2018-12-25T01:01:16.128Z,1200.70
2018-12-25T01:02:16.110Z,1194.50
2018-12-25T01:03:16.098Z,1206.50
2018-12-25T01:04:16.113Z,1207.70
2018-12-25T01:05:16.103Z,1195.00
2018-12-25T01:06:16.068Z,1201.80
2018-12-25T01:07:16.070Z,1198.60
2018-12-25T01:08:16.077Z,1195.50
2018-12-25T01:09:16.066Z,1197.60
2018-12-25T01:10:16.044Z,1198.40
2018-12-25T01:11:16.079Z,1205.60
2018-12-25T01:12:16.041Z,1195.00
2018-12-25T01:13:16.041Z,1199.00
2018-12-25T01:14:16.051Z,1202.50
2018-12-25T01:15:16.031Z,1179.60
2018-12-25T01:16:16.002Z,1189.70
2018-12-25T01:17:16.000Z,1187.70
2018-12-25T01:18:15.988Z,1188.40
2018-12-25T01:19:23.105Z,1197.30
2018-12-25T01:20:15.961Z,1184.10
2018-12-25T01:21:15.981Z,1201.20
2018-12-25T01:22:15.964Z,1188.00
2018-12-25T01:23:15.935Z,1184.70
2018-12-25T01:24:15.958Z,1184.40
2018-12-25T01:25:15.934Z,1192.40
2018-12-25T01:26:15.932Z,1176.90
2018-12-25T01:27:15.938Z,1190.60
2018-12-25T01:28:15.908Z,1188.60
2018-12-25T01:29:15.906Z,1182.60
2018-12-25T01:30:15.889Z,1182.30
2018-12-25T01:31:15.871Z,1184.20
2018-12-25T01:32:15.879Z,1184.50
2018-12-25T01:33:15.881Z,1207.10
2018-12-25T01:34:15.874Z,1201.00
2018-12-25T01:35:15.873Z,1190.10
2018-12-25T01:36:15.843Z,1210.30
2018-12-25T01:37:15.830Z,1194.70
2018-12-25T01:38:15.820Z,1187.80
2018-12-25T01:39:15.873Z,1200.60
2018-12-25T01:40:15.819Z,1199.10
2018-12-25T01:41:15.801Z,1193.60
2018-12-25T01:42:15.782Z,1200.30
2018-12-25T01:43:15.796Z,1195.20
2018-12-25T01:44:15.789Z,1204.80
2018-12-25T01:45:15.777Z,1193.30
2018-12-25T01:46:15.771Z,1189.50
2018-12-25T01:47:15.769Z,1200.50
2018-12-25T01:48:15.758Z,1194.80
2018-12-25T01:49:15.760Z,1202.10
2018-12-25T01:50:15.758Z,1208.20
2018-12-25T01:51:15.730Z,1196.20
2018-12-25T01:52:15.708Z,1204.90
2018-12-25T01:53:15.719Z,1202.90
2018-12-25T01:54:15.717Z,1194.10
2018-12-25T01:55:15.715Z,1207.60
2018-12-25T01:56:15.703Z,1195.90
2018-12-25T01:57:15.686Z,1202.40
2018-12-25T01:58:15.682Z,1203.60
2018-12-25T01:59:15.730Z,1195.60
2018-12-25T02:00:15.677Z,1203.60
2018-12-25T02:01:15.641Z,1201.90
2018-12-25T02:02:15.655Z,1200.50
2018-12-25T02:03:15.659Z,1194.30
2018-12-25T02:04:15.645Z,1209.40
2018-12-25T02:05:15.613Z,1190.40
2018-12-25T02:06:15.633Z,1189.90
2018-12-25T02:07:15.594Z,1209.50
2018-12-25T02:08:15.582Z,1185.30
2018-12-25T02:09:15.606Z,1198.80
2018-12-25T02:10:15.610Z,1197.00
2018-12-25T02:11:15.604Z,1193.00
2018-12-25T02:12:15.575Z,1193.40
2018-12-25T02:13:15.559Z,1193.10
2018-12-25T02:14:15.614Z,1182.40
2018-12-25T02:15:15.542Z,1197.70
2018-12-25T02:16:15.551Z,1196.30
2018-12-25T02:17:15.545Z,1185.60
2018-12-25T02:18:15.523Z,1246.90
2018-12-25T02:19:15.502Z,1239.60
2018-12-25T02:20:15.554Z,1234.00
2018-12-25T02:21:15.496Z,1233.70
2018-12-25T02:22:15.496Z,1224.60
2018-12-25T02:23:15.535Z,1233.10
2018-12-25T02:24:15.476Z,1225.00
2018-12-25T02:25:15.492Z,1218.20
2018-12-25T02:26:15.469Z,1231.30
2018-12-25T02:27:15.460Z,1227.90
2018-12-25T02:28:15.433Z,1230.00
2018-12-25T02:29:15.430Z,1248.50
2018-12-25T02:30:15.418Z,1226.60
2018-12-25T02:31:15.473Z,1227.70
2018-12-25T02:32:15.409Z,1225.90
2018-12-25T02:33:15.386Z,1231.20
2018-12-25T02:34:15.393Z,1222.40
2018-12-25T02:35:15.386Z,1232.90
2018-12-25T02:36:15.395Z,1227.00
2018-12-25T02:37:15.388Z,1227.50
2018-12-25T02:38:15.362Z,1230.80
2018-12-25T02:39:15.341Z,1226.90
2018-12-25T02:40:15.335Z,1226.50
2018-12-25T02:41:15.336Z,1222.30
2018-12-25T02:42:15.365Z,1225.80
2018-12-25T02:43:15.320Z,1216.00
2018-12-25T02:44:15.361Z,1221.60
2018-12-25T02:45:15.321Z,1228.30
2018-12-25T02:46:15.289Z,1225.30
2018-12-25T02:47:15.281Z,1223.80
2018-12-25T02:48:15.280Z,1225.90
2018-12-25T02:49:15.335Z,1199.30
2018-12-25T02:50:15.274Z,1206.80
2018-12-25T02:51:15.248Z,1216.20
2018-12-25T02:52:15.259Z,1227.70
2018-12-25T02:53:15.255Z,1222.90
2018-12-25T02:54:15.239Z,1238.30
2018-12-25T02:55:15.213Z,1225.60
2018-12-25T02:56:15.216Z,1236.20
2018-12-25T02:57:15.237Z,1227.30
2018-12-25T02:58:15.204Z,1231.60
2018-12-25T02:59:15.239Z,1232.80
2018-12-25T03:00:15.188Z,1214.70
2018-12-25T03:01:15.190Z,1225.30
2018-12-25T03:02:15.224Z,1220.10
2018-12-25T03:03:15.170Z,1220.90
2018-12-25T03:04:15.143Z,1215.10
2018-12-25T03:05:15.171Z,1221.30
2018-12-25T03:06:15.127Z,1242.60
2018-12-25T03:07:15.126Z,1221.60
2018-12-25T03:08:15.130Z,1204.40
2018-12-25T03:09:15.117Z,1214.70
2018-12-25T03:10:15.103Z,1205.60
2018-12-25T03:11:15.106Z,1205.40
2018-12-25T03:12:15.085Z,1213.60
2018-12-25T03:13:15.094Z,1216.30
2018-12-25T03:14:15.096Z,1215.20
2018-12-25T03:15:15.080Z,1217.70
2018-12-25T03:16:15.064Z,1215.00
2018-12-25T03:17:15.067Z,1217.70
2018-12-25T03:18:15.109Z,1215.90
2018-12-25T03:19:15.049Z,1218.60
2018-12-25T03:20:15.020Z,1218.80
2018-12-25T03:21:15.050Z,1200.40
2018-12-25T03:22:15.005Z,1210.10
2018-12-25T03:23:15.021Z,1216.70
2018-12-25T03:24:15.002Z,1211.00
2018-12-25T03:25:15.001Z,1211.40
2018-12-25T03:26:15.029Z,1195.80
2018-12-25T03:27:14.978Z,1196.40
2018-12-25T03:28:14.990Z,1216.90
2018-12-25T03:29:14.958Z,1207.00
2018-12-25T03:30:14.954Z,1208.80
2018-12-25T03:31:14.936Z,1206.80
2018-12-25T03:32:14.962Z,1208.80
2018-12-25T03:33:14.920Z,1206.00
2018-12-25T03:34:14.926Z,1199.90
2018-12-25T03:35:14.915Z,1202.40
2018-12-25T03:36:14.898Z,1207.40
2018-12-25T03:37:14.906Z,1193.10
2018-12-25T03:38:14.890Z,1200.20
2018-12-25T03:39:14.882Z,1199.60
2018-12-25T03:40:14.887Z,1193.30
2018-12-25T03:41:14.876Z,1200.50
2018-12-25T03:42:14.881Z,1194.80
2018-12-25T03:43:14.853Z,1210.30
2018-12-25T03:44:14.850Z,1210.50
2018-12-25T03:45:14.847Z,1204.60
2018-12-25T03:46:14.820Z,1207.40
2018-12-25T03:47:14.828Z,1213.90
2018-12-25T03:48:14.817Z,1200.60
2018-12-25T03:49:14.818Z,1205.30
2018-12-25T03:50:14.802Z,1207.30
2018-12-25T03:51:14.789Z,1205.60
2018-12-25T03:52:14.776Z,1211.60
2018-12-25T03:53:14.770Z,1211.10
2018-12-25T03:54:14.763Z,1203.50
2018-12-25T03:55:14.761Z,1203.20
2018-12-25T03:56:14.733Z,1199.00
2018-12-25T03:57:14.731Z,1200.00
2018-12-25T03:58:14.730Z,1210.10
2018-12-25T03:59:14.767Z,1203.00
2018-12-25T04:00:14.727Z,1148.70
2018-12-25T04:01:14.710Z,1163.80
2018-12-25T04:02:14.695Z,1169.20
2018-12-25T04:03:14.707Z,1166.30
2018-12-25T04:04:14.689Z,1176.30
2018-12-25T04:05:14.676Z,1177.90
2018-12-25T04:06:14.675Z,1173.40
2018-12-25T04:07:14.664Z,1169.80
2018-12-25T04:08:15.715Z,1181.60
2018-12-25T04:09:14.648Z,1178.20
2018-12-25T04:10:14.633Z,1174.40
2018-12-25T04:11:14.640Z,1172.10
2018-12-25T04:12:14.631Z,1186.40
2018-12-25T04:13:14.644Z,1182.60
2018-12-25T04:14:14.601Z,1183.30
2018-12-25T04:15:14.710Z,1178.20
2018-12-25T04:16:14.586Z,1179.80
2018-12-25T04:17:14.641Z,1177.00
2018-12-25T04:18:14.571Z,1178.90
2018-12-25T04:19:14.582Z,1177.10
2018-12-25T04:20:19.749Z,1165.90
2018-12-25T04:21:14.542Z,1179.90
2018-12-25T04:22:14.556Z,1175.50
2018-12-25T04:23:14.523Z,1165.90
2018-12-25T04:24:14.550Z,1169.80
2018-12-25T04:25:14.533Z,1173.50
2018-12-25T04:26:14.497Z,1175.40
2018-12-25T04:27:14.506Z,1175.00
2018-12-25T04:28:14.513Z,1174.20
2018-12-25T04:29:14.535Z,1177.70
2018-12-25T04:30:14.483Z,1179.50
2018-12-25T04:31:14.464Z,1194.90
2018-12-25T04:32:14.461Z,1183.70
2018-12-25T04:33:14.453Z,1173.10
2018-12-25T04:34:14.447Z,1177.90
2018-12-25T04:35:14.449Z,1172.10
2018-12-25T04:36:14.441Z,1179.50
2018-12-25T04:37:14.422Z,1177.90
2018-12-25T04:38:14.413Z,1180.40
2018-12-25T04:39:14.419Z,1184.90
2018-12-25T04:40:14.425Z,1185.60
2018-12-25T04:41:14.404Z,1175.40
2018-12-25T04:42:14.382Z,1174.30
2018-12-25T04:43:14.392Z,1177.40
2018-12-25T04:44:14.415Z,1165.20
2018-12-25T04:45:14.411Z,1184.50
2018-12-25T04:46:14.344Z,1187.50
2018-12-25T04:47:14.350Z,1214.10
2018-12-25T04:48:14.352Z,1228.00
2018-12-25T04:49:14.347Z,1217.30
2018-12-25T04:50:14.324Z,1211.20
2018-12-25T04:51:14.327Z,1186.10
2018-12-25T04:52:14.360Z,1173.80
2018-12-25T04:53:14.303Z,1172.80
2018-12-25T04:54:14.304Z,1171.00
2018-12-25T04:55:14.292Z,1164.60
2018-12-25T04:56:14.266Z,1217.30
2018-12-25T04:57:14.268Z,1214.80
2018-12-25T04:58:14.275Z,1214.30
2018-12-25T04:59:14.270Z,1207.10
2018-12-25T05:00:14.237Z,1213.90
2018-12-25T05:01:14.234Z,1200.20
2018-12-25T05:02:14.228Z,1205.20
2018-12-25T05:03:14.271Z,1208.10
2018-12-25T05:04:14.193Z,1205.80
2018-12-25T05:05:14.251Z,1211.60
2018-12-25T05:06:14.189Z,1210.00
2018-12-25T05:07:14.195Z,1202.50
2018-12-25T05:08:14.200Z,1204.90
2018-12-25T05:09:14.166Z,1209.80
2018-12-25T05:10:14.181Z,1201.20
2018-12-25T05:11:14.157Z,1205.90
2018-12-25T05:12:14.140Z,1190.60
2018-12-25T05:13:14.139Z,1202.00
2018-12-25T05:14:14.124Z,1195.50
2018-12-25T05:15:14.136Z,1198.00
2018-12-25T05:16:14.100Z,1203.60
2018-12-25T05:17:14.123Z,1211.20
2018-12-25T05:18:14.094Z,1223.20
2018-12-25T05:19:14.092Z,1224.30
2018-12-25T05:20:14.090Z,1210.80
2018-12-25T05:21:14.126Z,1208.70
2018-12-25T05:22:14.080Z,1196.30
2018-12-25T05:23:14.071Z,1200.90
2018-12-25T05:24:14.052Z,1201.90
2018-12-25T05:25:14.048Z,1198.60
2018-12-25T05:26:14.042Z,1200.70
2018-12-25T05:27:14.025Z,1207.20
2018-12-25T05:28:14.012Z,1201.80
2018-12-25T05:29:14.000Z,1211.90
2018-12-25T05:30:14.005Z,1206.50
2018-12-25T05:31:13.993Z,1196.30
2018-12-25T05:32:14.011Z,1202.40
2018-12-25T05:33:13.996Z,1217.30
2018-12-25T05:34:13.984Z,1211.80
2018-12-25T05:35:13.965Z,1208.10
2018-12-25T05:36:13.967Z,1213.80
2018-12-25T05:37:13.984Z,1213.20
2018-12-25T05:38:13.942Z,1194.60
2018-12-25T05:39:13.933Z,1214.60
2018-12-25T05:40:13.905Z,1209.80
2018-12-25T05:41:13.958Z,1209.10
2018-12-25T05:42:13.917Z,1210.00
2018-12-25T05:43:13.887Z,1218.20
2018-12-25T05:44:13.915Z,1216.00
2018-12-25T05:45:13.893Z,1210.80
2018-12-25T05:46:13.880Z,1207.40
2018-12-25T05:47:13.889Z,1205.70
2018-12-25T05:48:13.852Z,1214.30
2018-12-25T05:49:13.851Z,1209.40
2018-12-25T05:50:13.845Z,1216.80
2018-12-25T05:51:13.835Z,1209.30
2018-12-25T05:52:13.821Z,1206.60
2018-12-25T05:53:13.810Z,1212.90
2018-12-25T05:54:13.800Z,1209.50
2018-12-25T05:55:13.796Z,1197.20
2018-12-25T05:56:13.792Z,1210.80
2018-12-25T05:57:13.782Z,1214.90
2018-12-25T05:58:13.774Z,1215.60
2018-12-25T05:59:13.804Z,1200.90
2018-12-25T06:00:13.749Z,1196.90
2018-12-25T06:01:13.747Z,1210.70
2018-12-25T06:02:13.743Z,1196.30
2018-12-25T06:03:13.739Z,1210.30
2018-12-25T06:04:14.032Z,1213.30
2018-12-25T06:05:13.731Z,1213.10
2018-12-25T06:06:13.728Z,1210.10
2018-12-25T06:07:13.708Z,1213.30
2018-12-25T06:08:13.687Z,1208.10
2018-12-25T06:09:13.704Z,1216.80
2018-12-25T06:10:13.697Z,1216.30
2018-12-25T06:11:13.682Z,1210.10
2018-12-25T06:12:13.642Z,1214.30
2018-12-25T06:13:13.669Z,1212.00
2018-12-25T06:14:13.641Z,1210.50
2018-12-25T06:15:13.955Z,1207.00
2018-12-25T06:16:13.630Z,1202.20
2018-12-25T06:17:13.720Z,1206.10
2018-12-25T06:18:13.614Z,1206.40
2018-12-25T06:19:13.619Z,1204.50
2018-12-25T06:20:13.587Z,1210.70
2018-12-25T06:21:13.592Z,1215.20
2018-12-25T06:22:13.600Z,1198.60
2018-12-25T06:23:13.580Z,1208.50
2018-12-25T06:24:13.580Z,1200.90
2018-12-25T06:25:13.546Z,1199.30
2018-12-25T06:26:13.552Z,1203.30
2018-12-25T06:27:13.563Z,1215.30
2018-12-25T06:28:13.575Z,1211.00
2018-12-25T06:29:13.586Z,1211.50
2018-12-25T06:30:13.541Z,1198.90
2018-12-25T06:31:13.568Z,1215.20
2018-12-25T06:32:13.563Z,1217.60
2018-12-25T06:33:13.499Z,1214.10
2018-12-25T06:34:13.490Z,1208.30
2018-12-25T06:35:13.474Z,1221.30
2018-12-25T06:36:13.464Z,1206.30
2018-12-25T06:37:13.488Z,1210.00
2018-12-25T06:38:13.474Z,1213.90
2018-12-25T06:39:13.449Z,1200.10
2018-12-25T06:40:13.430Z,1217.40
2018-12-25T06:41:13.428Z,1217.80
2018-12-25T06:42:13.444Z,1213.40
2018-12-25T06:43:13.428Z,1213.30
2018-12-25T06:44:13.402Z,1211.00
2018-12-25T06:45:13.405Z,1208.30
2018-12-25T06:46:13.410Z,1204.60
2018-12-25T06:47:13.396Z,1206.80
2018-12-25T06:48:13.369Z,1213.80
2018-12-25T06:49:13.382Z,1201.90
2018-12-25T06:50:13.343Z,1215.40
2018-12-25T06:51:13.358Z,1209.80
2018-12-25T06:52:13.348Z,1202.80
2018-12-25T06:53:13.336Z,1206.70
2018-12-25T06:54:13.335Z,1209.30
2018-12-25T06:55:13.321Z,1199.60
2018-12-25T06:56:13.320Z,1208.40
2018-12-25T06:57:13.279Z,1198.70
2018-12-25T06:58:13.284Z,1210.20
2018-12-25T06:59:13.293Z,1211.10
2018-12-25T07:00:13.306Z,1208.40
2018-12-25T07:01:13.282Z,1192.10
2018-12-25T07:02:13.281Z,1196.00
2018-12-25T07:03:13.274Z,1203.80
2018-12-25T07:04:13.241Z,1196.00
2018-12-25T07:05:13.241Z,1204.80
2018-12-25T07:06:13.242Z,1203.20
2018-12-25T07:07:13.241Z,1189.80
2018-12-25T07:08:13.223Z,1212.90
2018-12-25T07:09:13.214Z,1213.30
2018-12-25T07:10:13.188Z,1203.80
2018-12-25T07:11:13.198Z,1206.00
2018-12-25T07:12:13.173Z,1204.10
2018-12-25T07:13:13.165Z,1213.00
2018-12-25T07:14:13.224Z,1211.00
2018-12-25T07:15:13.174Z,1212.20
2018-12-25T07:16:13.158Z,1212.90
2018-12-25T07:17:13.170Z,1213.40
2018-12-25T07:18:13.163Z,1217.70
2018-12-25T07:19:13.110Z,1210.90
2018-12-25T07:20:13.254Z,1208.60
2018-12-25T07:21:13.119Z,1215.00
2018-12-25T07:22:13.117Z,1209.10
2018-12-25T07:23:13.110Z,1203.60
2018-12-25T07:24:13.086Z,1206.90
2018-12-25T07:25:13.116Z,1199.30
2018-12-25T07:26:13.074Z,1190.70
2018-12-25T07:27:13.079Z,1199.00
2018-12-25T07:28:13.072Z,1177.00
2018-12-25T07:29:13.053Z,1202.00
2018-12-25T07:30:13.088Z,1210.00
2018-12-25T07:31:13.030Z,1205.20
2018-12-25T07:32:13.023Z,1205.10
2018-12-25T07:33:13.014Z,1204.50
2018-12-25T07:34:12.988Z,1205.20
2018-12-25T07:35:13.025Z,1200.60
2018-12-25T07:36:13.008Z,1209.10
2018-12-25T07:37:12.982Z,1222.70
2018-12-25T07:38:12.978Z,1204.50
2018-12-25T07:39:12.975Z,1210.30
2018-12-25T07:40:12.937Z,1210.50
2018-12-25T07:41:12.963Z,1212.90
2018-12-25T07:42:13.223Z,1207.60
2018-12-25T07:43:12.977Z,1193.70
2018-12-25T07:44:12.933Z,1202.50
2018-12-25T07:45:12.914Z,1211.40
2018-12-25T07:46:12.929Z,1216.10
2018-12-25T07:47:12.951Z,1207.70
2018-12-25T07:48:12.914Z,1212.20
2018-12-25T07:49:12.876Z,1199.40
2018-12-25T07:50:12.878Z,1202.50
2018-12-25T07:51:20.510Z,1216.90
2018-12-25T07:52:12.851Z,1218.50
2018-12-25T07:53:12.845Z,1200.80
2018-12-25T07:54:12.839Z,1201.10
2018-12-25T07:55:12.834Z,1189.60
2018-12-25T07:56:12.849Z,1205.30
2018-12-25T07:57:12.845Z,1216.00
2018-12-25T07:58:12.860Z,1208.60
2018-12-25T07:59:12.818Z,1198.10
2018-12-25T08:00:12.824Z,1214.40
2018-12-25T08:01:12.779Z,1199.50
2018-12-25T08:02:12.774Z,1211.90
2018-12-25T08:03:12.825Z,1211.90
2018-12-25T08:04:12.746Z,1203.70
2018-12-25T08:05:12.750Z,1224.70
2018-12-25T08:06:12.744Z,1204.70
2018-12-25T08:07:12.735Z,1201.80
2018-12-25T08:08:12.985Z,1196.80
2018-12-25T08:09:12.704Z,1205.10
2018-12-25T08:10:12.718Z,1204.30
2018-12-25T08:11:12.709Z,1198.90
2018-12-25T08:12:12.715Z,1196.40
2018-12-25T08:13:12.742Z,1196.10
2018-12-25T08:14:12.676Z,1205.30
2018-12-25T08:15:12.696Z,1212.20
2018-12-25T08:16:12.668Z,1215.30
2018-12-25T08:17:12.647Z,1190.10
2018-12-25T08:18:12.640Z,1211.20
2018-12-25T08:19:12.635Z,1207.50
2018-12-25T08:20:12.631Z,1210.20
2018-12-25T08:21:12.626Z,1213.60
2018-12-25T08:22:12.631Z,1206.90
2018-12-25T08:23:12.616Z,1207.40
2018-12-25T08:24:12.588Z,1202.50
2018-12-25T08:25:12.595Z,1217.40
2018-12-25T08:26:12.588Z,1207.50
2018-12-25T08:27:12.587Z,1217.30
2018-12-25T08:28:12.574Z,1215.40
2018-12-25T08:29:12.581Z,1207.80
2018-12-25T08:30:12.559Z,1206.10
2018-12-25T08:31:12.532Z,1219.90
2018-12-25T08:32:12.543Z,1211.30
2018-12-25T08:33:12.544Z,1219.90
2018-12-25T08:34:12.513Z,1210.20
2018-12-25T08:35:12.517Z,1198.10
2018-12-25T08:36:12.523Z,1207.90
2018-12-25T08:37:12.489Z,1199.20
2018-12-25T08:38:12.500Z,1213.40
2018-12-25T08:39:12.454Z,1206.50
2018-12-25T08:40:12.475Z,1203.20
2018-12-25T08:41:12.442Z,1215.20
2018-12-25T08:42:12.456Z,1216.80
2018-12-25T08:43:12.458Z,1190.60
2018-12-25T08:44:12.468Z,1206.10
2018-12-25T08:45:12.452Z,1204.00
2018-12-25T08:46:12.443Z,1209.70
2018-12-25T08:47:12.398Z,1202.40
2018-12-25T08:48:12.409Z,1204.20
2018-12-25T08:49:12.405Z,1191.10
2018-12-25T08:50:12.397Z,1208.80
2018-12-25T08:51:12.383Z,1201.00
2018-12-25T08:52:12.369Z,1206.70
2018-12-25T08:53:12.385Z,1200.70
2018-12-25T08:54:12.350Z,1205.00
2018-12-25T08:55:12.361Z,1208.10
2018-12-25T08:56:12.399Z,1206.10
2018-12-25T08:57:12.335Z,1195.80
2018-12-25T08:58:12.343Z,1193.90
2018-12-25T08:59:12.312Z,1194.50
2018-12-25T09:00:12.328Z,1193.10
2018-12-25T09:01:12.308Z,1199.20
2018-12-25T09:02:12.303Z,1196.30
2018-12-25T09:03:12.283Z,1191.00
2018-12-25T09:04:12.282Z,1210.40
2018-12-25T09:05:12.274Z,1198.80
2018-12-25T09:06:12.251Z,1200.80
2018-12-25T09:07:12.247Z,1222.80
2018-12-25T09:08:12.253Z,1242.70
2018-12-25T09:09:12.295Z,1212.20
2018-12-25T09:10:12.481Z,1185.40
2018-12-25T09:11:12.222Z,1188.70
2018-12-25T09:12:12.218Z,1185.60
2018-12-25T09:13:12.225Z,1188.20
2018-12-25T09:14:12.210Z,1186.80
2018-12-25T09:15:12.192Z,1199.20
2018-12-25T09:16:12.193Z,1188.30
2018-12-25T09:17:12.178Z,1186.00
2018-12-25T09:18:12.147Z,1189.30
2018-12-25T09:19:12.170Z,1195.30
2018-12-25T09:20:12.168Z,1202.80
2018-12-25T09:21:12.154Z,1203.60
2018-12-25T09:22:12.148Z,1202.80
2018-12-25T09:23:12.129Z,1203.10
2018-12-25T09:24:12.098Z,1204.50
2018-12-25T09:25:12.140Z,1191.60
2018-12-25T09:26:12.081Z,1202.60
2018-12-25T09:27:12.092Z,1187.20
2018-12-25T09:28:12.103Z,1211.00
2018-12-25T09:29:12.086Z,1221.70
2018-12-25T09:30:12.069Z,1203.80
2018-12-25T09:31:12.069Z,1203.30
2018-12-25T09:32:12.054Z,1196.80
2018-12-25T09:33:12.047Z,1203.40
2018-12-25T09:34:12.048Z,1196.80
2018-12-25T09:35:12.042Z,1196.00
2018-12-25T09:36:12.080Z,1204.50
2018-12-25T09:37:12.008Z,1202.00
2018-12-25T09:38:12.010Z,1206.30
2018-12-25T09:39:11.997Z,1207.30
2018-12-25T09:40:11.981Z,1212.80
2018-12-25T09:41:11.972Z,1219.40
2018-12-25T09:42:11.991Z,1219.70
2018-12-25T09:43:11.958Z,1217.90
2018-12-25T09:44:11.950Z,1205.90
2018-12-25T09:45:11.979Z,1208.50
2018-12-25T09:46:11.928Z,1197.50
2018-12-25T09:47:11.950Z,1215.60
2018-12-25T09:48:13.491Z,1217.70
2018-12-25T09:49:11.941Z,1208.60
2018-12-25T09:50:11.925Z,1205.20
2018-12-25T09:51:11.902Z,1205.30
2018-12-25T09:52:11.905Z,1183.40
2018-12-25T09:53:11.883Z,1201.80
2018-12-25T09:54:11.897Z,1214.20
2018-12-25T09:55:11.896Z,1206.20
2018-12-25T09:56:11.917Z,1209.60
2018-12-25T09:57:11.855Z,1207.30
2018-12-25T09:58:11.844Z,1209.70
2018-12-25T09:59:11.849Z,1198.80
2018-12-25T10:00:11.830Z,1209.30
2018-12-25T10:01:11.831Z,1204.90
2018-12-25T10:02:11.831Z,1208.70
2018-12-25T10:03:11.797Z,1206.50
2018-12-25T10:04:11.794Z,1205.40
2018-12-25T10:05:11.791Z,1202.80
2018-12-25T10:06:11.825Z,1200.60
2018-12-25T10:07:11.798Z,1198.10
2018-12-25T10:08:11.778Z,1207.10
2018-12-25T10:09:11.770Z,1204.70
2018-12-25T10:10:11.740Z,1208.90
2018-12-25T10:11:11.760Z,1209.90
2018-12-25T10:12:11.720Z,1203.90
2018-12-25T10:13:11.790Z,1204.30
2018-12-25T10:14:11.751Z,1202.00
2018-12-25T10:15:11.700Z,1198.40
2018-12-25T10:16:11.713Z,1204.20
2018-12-25T10:17:11.713Z,1201.30
2018-12-25T10:18:11.706Z,1193.40
2018-12-25T10:19:11.685Z,1212.40
2018-12-25T10:20:11.675Z,1204.10
2018-12-25T10:21:11.725Z,1201.40
2018-12-25T10:22:11.659Z,1207.30
2018-12-25T10:23:11.689Z,1214.90
2018-12-25T10:24:11.644Z,1205.90
2018-12-25T10:25:11.618Z,1212.30
2018-12-25T10:26:11.646Z,1214.90
2018-12-25T10:27:11.638Z,1198.80
2018-12-25T10:28:11.612Z,1214.10
2018-12-25T10:29:11.597Z,1199.90
2018-12-25T10:30:11.592Z,1203.30
2018-12-25T10:31:11.603Z,1197.70
2018-12-25T10:32:11.598Z,1195.90
2018-12-25T10:33:11.600Z,1201.20
2018-12-25T10:34:11.583Z,1197.30
2018-12-25T10:35:11.598Z,1202.80
2018-12-25T10:36:11.547Z,1187.80
2018-12-25T10:37:11.548Z,1204.90
2018-12-25T10:38:11.583Z,1199.20
2018-12-25T10:39:11.583Z,1195.80
2018-12-25T10:40:11.525Z,1200.20
2018-12-25T10:41:11.523Z,1185.10
2018-12-25T10:42:11.539Z,1192.10
2018-12-25T10:43:11.516Z,1208.20
2018-12-25T10:44:11.490Z,1188.20
2018-12-25T10:45:11.505Z,1182.40
2018-12-25T10:46:11.472Z,1177.70
2018-12-25T10:47:11.478Z,1175.60
2018-12-25T10:48:11.455Z,1200.70
2018-12-25T10:49:11.451Z,1186.10
2018-12-25T10:50:11.449Z,1178.60
2018-12-25T10:51:11.452Z,1189.30
2018-12-25T10:52:11.959Z,1182.90
2018-12-25T10:53:11.490Z,1184.10
2018-12-25T10:54:11.433Z,1185.30
2018-12-25T10:55:11.420Z,1193.10
2018-12-25T10:56:11.397Z,1184.70
2018-12-25T10:57:11.404Z,1194.20
2018-12-25T10:58:11.405Z,1194.30
2018-12-25T10:59:11.377Z,1197.20
2018-12-25T11:00:11.406Z,1189.80
2018-12-25T11:01:11.370Z,1193.60
2018-12-25T11:02:11.350Z,1200.90
2018-12-25T11:03:13.077Z,1186.80
2018-12-25T11:04:11.346Z,1195.60
2018-12-25T11:05:11.360Z,1194.00
2018-12-25T11:06:11.355Z,1189.00
2018-12-25T11:07:11.338Z,1189.00
2018-12-25T11:08:11.311Z,1193.20
2018-12-25T11:09:11.346Z,1188.10
2018-12-25T11:10:11.361Z,1184.60
2018-12-25T11:11:11.324Z,1150.00
2018-12-25T11:12:11.297Z,1159.30
2018-12-25T11:13:11.313Z,1160.70
2018-12-25T11:14:11.290Z,1169.50
2018-12-25T11:15:11.289Z,1192.30
2018-12-25T11:16:11.286Z,1174.50
2018-12-25T11:17:11.278Z,1152.80
2018-12-25T11:18:11.254Z,1142.40
2018-12-25T11:19:11.258Z,1145.70
2018-12-25T11:20:11.509Z,1157.60
2018-12-25T11:21:11.227Z,1158.00
2018-12-25T11:22:19.563Z,1148.80
2018-12-25T11:23:11.224Z,1139.30
2018-12-25T11:24:11.194Z,1146.90
2018-12-25T11:25:11.216Z,1146.20
2018-12-25T11:26:11.202Z,1163.10
2018-12-25T11:27:11.235Z,1154.40
2018-12-25T11:28:11.203Z,1143.60
2018-12-25T11:29:11.180Z,1129.40
2018-12-25T11:30:11.196Z,1122.50
2018-12-25T11:31:11.151Z,1125.90
2018-12-25T11:32:11.161Z,1117.90
2018-12-25T11:33:11.176Z,1113.00
2018-12-25T11:34:11.141Z,1112.90
2018-12-25T11:35:11.148Z,1121.50
2018-12-25T11:36:11.134Z,1128.60
2018-12-25T11:37:11.118Z,1111.40
2018-12-25T11:38:11.109Z,1116.10
2018-12-25T11:39:11.123Z,1090.00
2018-12-25T11:40:11.150Z,1096.60
2018-12-25T11:41:11.111Z,1096.10
2018-12-25T11:42:11.098Z,1095.50
2018-12-25T11:43:11.117Z,1111.60
2018-12-25T11:44:11.105Z,1088.90
2018-12-25T11:45:11.108Z,1098.20
2018-12-25T11:46:11.079Z,1062.30
2018-12-25T11:47:11.082Z,1076.30
2018-12-25T11:48:11.050Z,1082.50
2018-12-25T11:49:11.050Z,1071.00
2018-12-25T11:50:11.054Z,1074.60
2018-12-25T11:51:11.035Z,1074.10
2018-12-25T11:52:11.069Z,1080.60
2018-12-25T11:53:11.025Z,1072.90
2018-12-25T11:54:11.032Z,1069.70
2018-12-25T11:55:11.027Z,1066.40
2018-12-25T11:56:11.026Z,1055.90
2018-12-25T11:57:10.999Z,1039.80
2018-12-25T11:58:12.079Z,1058.10
2018-12-25T11:59:11.006Z,1054.60
2018-12-25T12:00:11.010Z,1069.40
2018-12-25T12:01:10.996Z,1041.00
2018-12-25T12:02:17.022Z,990.10
2018-12-25T12:03:10.979Z,1027.90
2018-12-25T12:04:11.003Z,1009.30
2018-12-25T12:05:11.008Z,983.50